sensor_id;sensor_type;location;lat;lon;timestamp;P1;durP1;ratioP1;P2;durP2;ratioP2
1402;SDS011;696;48.546;9.896;2023-07-08T00:00:11;9.60;;;4.47;;
1402;SDS011;696;48.546;9.896;2023-07-08T00:02:39;12.10;;;4.75;;
1402;SDS011;696;48.546;9.896;2023-07-08T00:05:05;8.20;;;4.53;;
1402;SDS011;696;48.546;9.896;2023-07-08T00:07:32;11.68;;;5.28;;
1402;SDS011;696;48.546;9.896;2023-07-08T00:09:57;17.50;;;5.63;;
1402;SDS011;696;48.546;9.896;2023-07-08T00:12:22;13.20;;;5.10;;
1402;SDS011;696;48.546;9.896;2023-07-08T00:14:48;13.15;;;4.97;;
1402;SDS011;696;48.546;9.896;2023-07-08T00:17:13;15.15;;;5.13;;
1402;SDS011;696;48.546;9.896;2023-07-08T00:19:39;12.13;;;4.75;;
1402;SDS011;696;48.546;9.896;2023-07-08T00:22:09;9.52;;;5.20;;
1402;SDS011;696;48.546;9.896;2023-07-08T00:24:39;9.82;;;5.55;;
1402;SDS011;696;48.546;9.896;2023-07-08T00:27:07;9.20;;;5.38;;
1402;SDS011;696;48.546;9.896;2023-07-08T00:29:34;5.97;;;4.53;;
1402;SDS011;696;48.546;9.896;2023-07-08T00:32:00;10.68;;;4.72;;
1402;SDS011;696;48.546;9.896;2023-07-08T00:34:25;10.68;;;5.75;;
1402;SDS011;696;48.546;9.896;2023-07-08T00:36:50;10.48;;;5.45;;
1402;SDS011;696;48.546;9.896;2023-07-08T00:39:16;8.18;;;5.78;;
1402;SDS011;696;48.546;9.896;2023-07-08T00:41:41;12.13;;;5.88;;
1402;SDS011;696;48.546;9.896;2023-07-08T00:44:11;8.48;;;5.30;;
1402;SDS011;696;48.546;9.896;2023-07-08T00:49:41;14.90;;;5.13;;
1402;SDS011;696;48.546;9.896;2023-07-08T00:52:18;9.50;;;5.55;;
1402;SDS011;696;48.546;9.896;2023-07-08T00:54:44;10.95;;;4.97;;
1402;SDS011;696;48.546;9.896;2023-07-08T00:57:09;9.80;;;5.00;;
1402;SDS011;696;48.546;9.896;2023-07-08T00:59:41;14.98;;;5.93;;
1402;SDS011;696;48.546;9.896;2023-07-08T01:02:11;11.82;;;5.28;;
1402;SDS011;696;48.546;9.896;2023-07-08T01:04:39;13.45;;;5.93;;
1402;SDS011;696;48.546;9.896;2023-07-08T01:07:11;12.65;;;5.82;;
1402;SDS011;696;48.546;9.896;2023-07-08T01:09:43;8.38;;;5.32;;
1402;SDS011;696;48.546;9.896;2023-07-08T01:12:11;8.90;;;5.00;;
1402;SDS011;696;48.546;9.896;2023-07-08T01:14:41;9.40;;;5.28;;
1402;SDS011;696;48.546;9.896;2023-07-08T01:17:08;11.60;;;5.20;;
1402;SDS011;696;48.546;9.896;2023-07-08T01:19:38;7.88;;;4.75;;
1402;SDS011;696;48.546;9.896;2023-07-08T01:22:05;10.25;;;5.65;;
1402;SDS011;696;48.546;9.896;2023-07-08T01:24:31;5.43;;;4.63;;
1402;SDS011;696;48.546;9.896;2023-07-08T01:26:59;13.88;;;5.55;;
1402;SDS011;696;48.546;9.896;2023-07-08T01:29:25;10.68;;;5.28;;
1402;SDS011;696;48.546;9.896;2023-07-08T01:31:51;8.93;;;4.68;;
1402;SDS011;696;48.546;9.896;2023-07-08T01:34:17;9.85;;;5.40;;
1402;SDS011;696;48.546;9.896;2023-07-08T01:36:47;9.25;;;5.10;;
1402;SDS011;696;48.546;9.896;2023-07-08T01:39:14;7.63;;;5.00;;
1402;SDS011;696;48.546;9.896;2023-07-08T01:41:43;7.82;;;4.93;;
1402;SDS011;696;48.546;9.896;2023-07-08T01:44:29;9.98;;;5.35;;
1402;SDS011;696;48.546;9.896;2023-07-08T01:47:07;7.63;;;4.85;;
1402;SDS011;696;48.546;9.896;2023-07-08T01:49:37;9.20;;;5.18;;
1402;SDS011;696;48.546;9.896;2023-07-08T01:52:03;8.57;;;5.20;;
1402;SDS011;696;48.546;9.896;2023-07-08T01:54:29;10.45;;;5.45;;
1402;SDS011;696;48.546;9.896;2023-07-08T01:56:55;14.13;;;5.38;;
1402;SDS011;696;48.546;9.896;2023-07-08T01:59:21;11.07;;;5.38;;
1402;SDS011;696;48.546;9.896;2023-07-08T02:01:46;7.63;;;5.20;;
1402;SDS011;696;48.546;9.896;2023-07-08T02:04:14;8.23;;;5.07;;
1402;SDS011;696;48.546;9.896;2023-07-08T02:06:39;7.88;;;5.13;;
1402;SDS011;696;48.546;9.896;2023-07-08T02:09:05;9.07;;;4.90;;
1402;SDS011;696;48.546;9.896;2023-07-08T02:11:31;8.55;;;4.68;;
1402;SDS011;696;48.546;9.896;2023-07-08T02:13:56;10.73;;;4.93;;
1402;SDS011;696;48.546;9.896;2023-07-08T02:16:22;11.23;;;5.72;;
1402;SDS011;696;48.546;9.896;2023-07-08T02:18:47;12.15;;;4.68;;
1402;SDS011;696;48.546;9.896;2023-07-08T02:21:12;10.45;;;5.63;;
1402;SDS011;696;48.546;9.896;2023-07-08T02:23:38;11.30;;;5.28;;
1402;SDS011;696;48.546;9.896;2023-07-08T02:26:03;8.63;;;5.53;;
1402;SDS011;696;48.546;9.896;2023-07-08T02:28:29;9.88;;;5.43;;
1402;SDS011;696;48.546;9.896;2023-07-08T02:30:54;11.10;;;4.97;;
1402;SDS011;696;48.546;9.896;2023-07-08T02:33:19;8.07;;;5.18;;
1402;SDS011;696;48.546;9.896;2023-07-08T02:35:45;14.82;;;4.75;;
1402;SDS011;696;48.546;9.896;2023-07-08T02:38:10;9.52;;;5.57;;
1402;SDS011;696;48.546;9.896;2023-07-08T02:40:36;11.13;;;5.75;;
1402;SDS011;696;48.546;9.896;2023-07-08T02:43:07;13.40;;;5.38;;
1402;SDS011;696;48.546;9.896;2023-07-08T02:45:38;9.57;;;4.97;;
1402;SDS011;696;48.546;9.896;2023-07-08T02:48:12;13.88;;;5.43;;
1402;SDS011;696;48.546;9.896;2023-07-08T02:50:37;7.95;;;4.63;;
1402;SDS011;696;48.546;9.896;2023-07-08T02:53:03;7.95;;;5.22;;
1402;SDS011;696;48.546;9.896;2023-07-08T02:55:28;10.65;;;5.57;;
1402;SDS011;696;48.546;9.896;2023-07-08T02:57:53;7.18;;;4.80;;
1402;SDS011;696;48.546;9.896;2023-07-08T03:00:19;11.13;;;5.93;;
1402;SDS011;696;48.546;9.896;2023-07-08T03:02:44;8.20;;;4.93;;
1402;SDS011;696;48.546;9.896;2023-07-08T03:05:10;8.27;;;4.93;;
1402;SDS011;696;48.546;9.896;2023-07-08T03:07:36;8.38;;;5.28;;
1402;SDS011;696;48.546;9.896;2023-07-08T03:10:01;11.48;;;5.47;;
1402;SDS011;696;48.546;9.896;2023-07-08T03:12:26;9.05;;;5.13;;
1402;SDS011;696;48.546;9.896;2023-07-08T03:14:52;14.80;;;6.15;;
1402;SDS011;696;48.546;9.896;2023-07-08T03:17:17;8.38;;;4.78;;
1402;SDS011;696;48.546;9.896;2023-07-08T03:19:44;7.25;;;4.80;;
1402;SDS011;696;48.546;9.896;2023-07-08T03:22:09;9.02;;;5.28;;
1402;SDS011;696;48.546;9.896;2023-07-08T03:24:34;10.50;;;4.75;;
1402;SDS011;696;48.546;9.896;2023-07-08T03:27:00;10.23;;;4.72;;
1402;SDS011;696;48.546;9.896;2023-07-08T03:29:29;12.80;;;5.00;;
1402;SDS011;696;48.546;9.896;2023-07-08T03:31:55;7.70;;;4.85;;
1402;SDS011;696;48.546;9.896;2023-07-08T03:34:20;10.50;;;5.00;;
1402;SDS011;696;48.546;9.896;2023-07-08T03:36:46;7.15;;;4.70;;
1402;SDS011;696;48.546;9.896;2023-07-08T03:39:14;7.95;;;4.78;;
1402;SDS011;696;48.546;9.896;2023-07-08T03:41:43;9.52;;;5.07;;
1402;SDS011;696;48.546;9.896;2023-07-08T03:44:09;6.18;;;4.53;;
1402;SDS011;696;48.546;9.896;2023-07-08T03:46:34;10.90;;;5.45;;
1402;SDS011;696;48.546;9.896;2023-07-08T03:48:59;9.63;;;5.05;;
1402;SDS011;696;48.546;9.896;2023-07-08T03:51:26;8.13;;;5.07;;
1402;SDS011;696;48.546;9.896;2023-07-08T03:53:54;6.93;;;4.38;;
1402;SDS011;696;48.546;9.896;2023-07-08T03:56:19;8.68;;;5.20;;
1402;SDS011;696;48.546;9.896;2023-07-08T03:58:45;11.50;;;5.38;;
1402;SDS011;696;48.546;9.896;2023-07-08T04:01:17;6.88;;;4.47;;
1402;SDS011;696;48.546;9.896;2023-07-08T04:03:45;10.27;;;5.65;;
1402;SDS011;696;48.546;9.896;2023-07-08T04:06:11;8.25;;;5.25;;
1402;SDS011;696;48.546;9.896;2023-07-08T04:08:36;11.05;;;5.38;;
1402;SDS011;696;48.546;9.896;2023-07-08T04:11:02;10.85;;;5.47;;
1402;SDS011;696;48.546;9.896;2023-07-08T04:13:27;9.38;;;5.45;;
1402;SDS011;696;48.546;9.896;2023-07-08T04:15:54;8.85;;;5.03;;
1402;SDS011;696;48.546;9.896;2023-07-08T04:18:21;8.45;;;4.93;;
1402;SDS011;696;48.546;9.896;2023-07-08T04:20:47;10.45;;;5.25;;
1402;SDS011;696;48.546;9.896;2023-07-08T04:23:17;10.30;;;5.35;;
1402;SDS011;696;48.546;9.896;2023-07-08T04:25:46;8.27;;;4.80;;
1402;SDS011;696;48.546;9.896;2023-07-08T04:28:13;14.35;;;5.18;;
1402;SDS011;696;48.546;9.896;2023-07-08T04:30:38;10.38;;;5.38;;
1402;SDS011;696;48.546;9.896;2023-07-08T04:33:06;8.43;;;5.68;;
1402;SDS011;696;48.546;9.896;2023-07-08T04:35:33;16.42;;;5.43;;
1402;SDS011;696;48.546;9.896;2023-07-08T04:38:00;7.70;;;4.82;;
1402;SDS011;696;48.546;9.896;2023-07-08T04:40:25;7.68;;;5.05;;
1402;SDS011;696;48.546;9.896;2023-07-08T04:42:51;7.68;;;4.43;;
1402;SDS011;696;48.546;9.896;2023-07-08T04:45:17;8.88;;;5.43;;
1402;SDS011;696;48.546;9.896;2023-07-08T04:47:43;11.52;;;4.88;;
1402;SDS011;696;48.546;9.896;2023-07-08T04:50:11;9.57;;;4.28;;
1402;SDS011;696;48.546;9.896;2023-07-08T04:52:37;8.05;;;4.75;;
1402;SDS011;696;48.546;9.896;2023-07-08T04:55:02;13.27;;;4.80;;
1402;SDS011;696;48.546;9.896;2023-07-08T04:57:28;7.18;;;4.45;;
1402;SDS011;696;48.546;9.896;2023-07-08T04:59:53;8.10;;;5.07;;
1402;SDS011;696;48.546;9.896;2023-07-08T05:02:19;8.95;;;5.88;;
1402;SDS011;696;48.546;9.896;2023-07-08T05:04:45;9.90;;;5.00;;
1402;SDS011;696;48.546;9.896;2023-07-08T05:07:10;9.77;;;4.95;;
1402;SDS011;696;48.546;9.896;2023-07-08T05:09:35;8.77;;;5.25;;
1402;SDS011;696;48.546;9.896;2023-07-08T05:12:01;6.57;;;4.43;;
1402;SDS011;696;48.546;9.896;2023-07-08T05:14:26;9.63;;;5.03;;
1402;SDS011;696;48.546;9.896;2023-07-08T05:16:51;7.18;;;4.63;;
1402;SDS011;696;48.546;9.896;2023-07-08T05:19:17;10.75;;;5.57;;
1402;SDS011;696;48.546;9.896;2023-07-08T05:21:43;7.93;;;5.20;;
1402;SDS011;696;48.546;9.896;2023-07-08T05:24:10;8.55;;;4.68;;
1402;SDS011;696;48.546;9.896;2023-07-08T05:26:35;7.35;;;5.18;;
1402;SDS011;696;48.546;9.896;2023-07-08T05:29:01;9.13;;;5.15;;
1402;SDS011;696;48.546;9.896;2023-07-08T05:31:27;10.00;;;5.10;;
1402;SDS011;696;48.546;9.896;2023-07-08T05:33:52;8.73;;;5.57;;
1402;SDS011;696;48.546;9.896;2023-07-08T05:36:18;10.18;;;5.28;;
1402;SDS011;696;48.546;9.896;2023-07-08T05:38:43;11.52;;;6.07;;
1402;SDS011;696;48.546;9.896;2023-07-08T05:41:09;9.73;;;5.35;;
1402;SDS011;696;48.546;9.896;2023-07-08T05:43:34;6.70;;;4.53;;
1402;SDS011;696;48.546;9.896;2023-07-08T05:46:00;8.93;;;5.05;;
1402;SDS011;696;48.546;9.896;2023-07-08T05:48:26;9.57;;;4.70;;
1402;SDS011;696;48.546;9.896;2023-07-08T05:50:52;10.55;;;5.13;;
1402;SDS011;696;48.546;9.896;2023-07-08T05:53:18;9.05;;;4.70;;
1402;SDS011;696;48.546;9.896;2023-07-08T05:55:44;10.25;;;5.70;;
1402;SDS011;696;48.546;9.896;2023-07-08T05:58:10;15.02;;;5.10;;
1402;SDS011;696;48.546;9.896;2023-07-08T06:00:35;9.63;;;4.68;;
1402;SDS011;696;48.546;9.896;2023-07-08T06:03:01;8.95;;;4.45;;
1402;SDS011;696;48.546;9.896;2023-07-08T06:05:27;5.70;;;4.30;;
1402;SDS011;696;48.546;9.896;2023-07-08T06:07:52;7.85;;;4.78;;
1402;SDS011;696;48.546;9.896;2023-07-08T06:10:17;6.78;;;4.80;;
1402;SDS011;696;48.546;9.896;2023-07-08T06:12:43;7.80;;;4.80;;
1402;SDS011;696;48.546;9.896;2023-07-08T06:15:08;14.98;;;5.35;;
1402;SDS011;696;48.546;9.896;2023-07-08T06:17:34;8.45;;;5.03;;
1402;SDS011;696;48.546;9.896;2023-07-08T06:19:59;8.32;;;4.60;;
1402;SDS011;696;48.546;9.896;2023-07-08T06:22:24;12.13;;;4.63;;
1402;SDS011;696;48.546;9.896;2023-07-08T06:24:50;12.80;;;4.75;;
1402;SDS011;696;48.546;9.896;2023-07-08T06:27:15;7.68;;;4.10;;
1402;SDS011;696;48.546;9.896;2023-07-08T06:29:41;7.35;;;4.88;;
1402;SDS011;696;48.546;9.896;2023-07-08T06:32:06;13.55;;;4.78;;
1402;SDS011;696;48.546;9.896;2023-07-08T06:34:32;11.98;;;5.70;;
1402;SDS011;696;48.546;9.896;2023-07-08T06:36:57;8.07;;;5.20;;
1402;SDS011;696;48.546;9.896;2023-07-08T06:39:22;10.35;;;4.97;;
1402;SDS011;696;48.546;9.896;2023-07-08T06:41:48;7.97;;;4.70;;
1402;SDS011;696;48.546;9.896;2023-07-08T21:37:29;5.45;;;2.15;;
1402;SDS011;696;48.546;9.896;2023-07-08T21:39:54;9.45;;;2.65;;
1402;SDS011;696;48.546;9.896;2023-07-08T21:42:20;5.53;;;2.70;;
1402;SDS011;696;48.546;9.896;2023-07-08T21:44:45;4.75;;;2.70;;
1402;SDS011;696;48.546;9.896;2023-07-08T21:47:10;3.17;;;2.38;;
1402;SDS011;696;48.546;9.896;2023-07-08T21:49:36;5.57;;;2.30;;
1402;SDS011;696;48.546;9.896;2023-07-08T21:52:01;5.30;;;2.67;;
1402;SDS011;696;48.546;9.896;2023-07-08T21:54:26;6.82;;;1.98;;
1402;SDS011;696;48.546;9.896;2023-07-08T21:56:52;7.97;;;1.95;;
1402;SDS011;696;48.546;9.896;2023-07-08T21:59:18;3.97;;;2.33;;
1402;SDS011;696;48.546;9.896;2023-07-08T22:01:46;3.30;;;1.90;;
1402;SDS011;696;48.546;9.896;2023-07-08T22:04:12;2.65;;;1.80;;
1402;SDS011;696;48.546;9.896;2023-07-08T22:06:39;2.50;;;1.88;;
1402;SDS011;696;48.546;9.896;2023-07-08T22:09:04;5.22;;;2.22;;
1402;SDS011;696;48.546;9.896;2023-07-08T22:11:31;4.47;;;2.47;;
1402;SDS011;696;48.546;9.896;2023-07-08T22:13:58;5.00;;;2.00;;
1402;SDS011;696;48.546;9.896;2023-07-08T22:16:24;3.95;;;2.50;;
1402;SDS011;696;48.546;9.896;2023-07-08T22:18:51;2.90;;;2.03;;
1402;SDS011;696;48.546;9.896;2023-07-08T22:23:43;3.35;;;2.50;;
1402;SDS011;696;48.546;9.896;2023-07-08T22:26:09;7.25;;;2.35;;
1402;SDS011;696;48.546;9.896;2023-07-08T22:28:34;2.83;;;1.73;;
1402;SDS011;696;48.546;9.896;2023-07-08T22:30:59;3.33;;;2.20;;
1402;SDS011;696;48.546;9.896;2023-07-08T22:33:25;3.13;;;2.20;;
1402;SDS011;696;48.546;9.896;2023-07-08T22:35:50;4.10;;;2.40;;
1402;SDS011;696;48.546;9.896;2023-07-08T22:38:16;3.67;;;2.42;;
1402;SDS011;696;48.546;9.896;2023-07-08T22:40:45;3.88;;;2.08;;
1402;SDS011;696;48.546;9.896;2023-07-08T22:43:13;4.32;;;2.45;;
1402;SDS011;696;48.546;9.896;2023-07-08T22:45:41;8.30;;;2.28;;
1402;SDS011;696;48.546;9.896;2023-07-08T22:48:08;3.50;;;2.40;;
1402;SDS011;696;48.546;9.896;2023-07-08T22:50:35;3.13;;;2.22;;
1402;SDS011;696;48.546;9.896;2023-07-08T22:53:01;5.47;;;2.40;;
1402;SDS011;696;48.546;9.896;2023-07-08T22:55:27;3.13;;;2.25;;
1402;SDS011;696;48.546;9.896;2023-07-08T22:57:57;9.88;;;2.85;;
1402;SDS011;696;48.546;9.896;2023-07-08T23:00:24;6.55;;;2.42;;
1402;SDS011;696;48.546;9.896;2023-07-08T23:02:50;7.95;;;2.55;;
1402;SDS011;696;48.546;9.896;2023-07-08T23:05:18;6.95;;;2.90;;
1402;SDS011;696;48.546;9.896;2023-07-08T23:07:46;4.45;;;2.50;;
1402;SDS011;696;48.546;9.896;2023-07-08T23:10:12;3.15;;;2.13;;
1402;SDS011;696;48.546;9.896;2023-07-08T23:12:38;3.92;;;2.30;;
1402;SDS011;696;48.546;9.896;2023-07-08T23:15:03;7.53;;;2.90;;
1402;SDS011;696;48.546;9.896;2023-07-08T23:17:29;3.00;;;2.03;;
1402;SDS011;696;48.546;9.896;2023-07-08T23:19:55;3.90;;;2.30;;
1402;SDS011;696;48.546;9.896;2023-07-08T23:22:20;6.13;;;2.38;;
1402;SDS011;696;48.546;9.896;2023-07-08T23:24:47;4.47;;;2.22;;
1402;SDS011;696;48.546;9.896;2023-07-08T23:27:13;3.35;;;2.10;;
1402;SDS011;696;48.546;9.896;2023-07-08T23:29:40;2.28;;;2.03;;
1402;SDS011;696;48.546;9.896;2023-07-08T23:32:05;5.60;;;2.78;;
1402;SDS011;696;48.546;9.896;2023-07-08T23:34:32;2.33;;;2.13;;
1402;SDS011;696;48.546;9.896;2023-07-08T23:36:59;3.58;;;2.30;;
1402;SDS011;696;48.546;9.896;2023-07-08T23:39:28;5.90;;;2.55;;
1402;SDS011;696;48.546;9.896;2023-07-08T23:41:54;4.50;;;2.05;;
1402;SDS011;696;48.546;9.896;2023-07-08T23:44:20;7.05;;;2.63;;
1402;SDS011;696;48.546;9.896;2023-07-08T23:46:47;5.13;;;2.50;;
1402;SDS011;696;48.546;9.896;2023-07-08T23:49:27;4.05;;;2.22;;
1402;SDS011;696;48.546;9.896;2023-07-08T23:51:54;3.28;;;2.15;;
1402;SDS011;696;48.546;9.896;2023-07-08T23:56:45;5.13;;;2.77;;
1402;SDS011;696;48.546;9.896;2023-07-08T23:59:11;4.68;;;2.25;;
